createdAt,value
2018-12-16T00:00:31.724Z,25.87
2018-12-16T00:03:07.781Z,25.80
2018-12-16T00:05:36.262Z,25.80
2018-12-16T00:08:11.343Z,28.37
2018-12-16T00:10:43.176Z,28.40
2018-12-16T00:13:30.074Z,27.70
2018-12-16T00:15:59.225Z,28.50
2018-12-16T00:18:28.189Z,27.53
2018-12-16T00:20:57.396Z,26.95
2018-12-16T00:23:25.935Z,26.13
2018-12-16T00:25:54.454Z,26.23
2018-12-16T00:28:28.385Z,26.67
2018-12-16T00:30:56.861Z,27.17
2018-12-16T00:33:31.846Z,28.63
2018-12-16T00:36:22.629Z,27.20
2018-12-16T00:38:56.470Z,28.63
2018-12-16T00:41:29.354Z,26.27
2018-12-16T00:43:57.880Z,26.60
2018-12-16T00:46:39.860Z,25.63
2018-12-16T00:49:09.070Z,28.10
2018-12-16T00:51:37.875Z,26.40
2018-12-16T00:54:26.496Z,26.55
2018-12-16T00:56:55.756Z,28.17
2018-12-16T00:59:25.503Z,27.57
2018-12-16T01:01:54.327Z,27.63
2018-12-16T01:04:28.232Z,27.33
2018-12-16T01:07:17.902Z,25.97
2018-12-16T01:09:47.195Z,27.33
2018-12-16T01:12:17.113Z,27.90
2018-12-16T01:15:03.276Z,26.17
2018-12-16T01:17:33.437Z,27.07
2018-12-16T01:20:07.379Z,26.40
2018-12-16T01:22:52.960Z,28.90
2018-12-16T01:25:27.784Z,27.57
2018-12-16T01:27:56.446Z,29.98
2018-12-16T01:30:25.686Z,31.40
2018-12-16T01:32:56.108Z,29.75
2018-12-16T01:35:25.006Z,29.07
2018-12-16T01:37:53.437Z,30.70
2018-12-16T01:40:22.318Z,30.37
2018-12-16T01:42:51.435Z,29.20
2018-12-16T01:45:20.510Z,29.48
2018-12-16T01:47:49.052Z,28.38
2018-12-16T01:50:40.308Z,30.17
2018-12-16T01:53:09.057Z,29.77
2018-12-16T01:55:43.720Z,28.05
2018-12-16T01:58:12.179Z,28.20
2018-12-16T02:00:57.498Z,27.45
2018-12-16T02:03:26.986Z,26.85
2018-12-16T02:05:55.445Z,26.73
2018-12-16T02:08:23.856Z,25.47
2018-12-16T02:10:52.345Z,22.90
2018-12-16T02:13:22.202Z,20.93
2018-12-16T02:15:53.348Z,21.52
2018-12-16T02:18:38.925Z,21.55
2018-12-16T02:21:08.242Z,19.50
2018-12-16T02:23:43.056Z,21.48
2018-12-16T02:29:08.296Z,22.95
2018-12-16T02:31:42.231Z,21.97
2018-12-16T02:34:15.010Z,23.05
2018-12-16T02:36:43.802Z,21.50
2018-12-16T02:42:07.642Z,21.85
2018-12-16T02:44:41.793Z,21.30
2018-12-16T02:47:12.746Z,21.48
2018-12-16T02:49:45.384Z,21.00
2018-12-16T02:52:14.069Z,22.02
2018-12-16T02:54:44.257Z,21.80
2018-12-16T02:57:18.296Z,21.80
2018-12-16T03:00:02.856Z,25.23
2018-12-16T03:02:31.409Z,26.87
2018-12-16T03:05:07.803Z,22.62
2018-12-16T03:10:31.558Z,22.80
2018-12-16T03:13:00.742Z,23.10
2018-12-16T03:15:30.047Z,22.67
2018-12-16T03:18:05.310Z,22.07
2018-12-16T03:20:39.126Z,22.37
2018-12-16T03:23:13.682Z,23.15
2018-12-16T03:25:47.472Z,19.92
2018-12-16T03:28:21.362Z,18.30
2018-12-16T03:30:55.945Z,18.40
2018-12-16T03:33:28.717Z,15.88
2018-12-16T03:36:17.402Z,16.57
2018-12-16T03:38:51.359Z,17.95
2018-12-16T03:41:25.424Z,16.40
2018-12-16T03:43:56.202Z,16.67
2018-12-16T03:46:30.724Z,16.60
2018-12-16T03:49:17.467Z,17.75
2018-12-16T03:51:55.395Z,18.07
2018-12-16T03:54:30.294Z,18.32
2018-12-16T03:57:04.329Z,16.23
2018-12-16T03:59:37.454Z,17.73
2018-12-16T04:02:23.026Z,15.95
2018-12-16T04:05:12.850Z,15.98
2018-12-16T04:07:42.958Z,17.32
2018-12-16T04:10:16.748Z,17.12
2018-12-16T04:12:48.621Z,17.60
2018-12-16T04:15:23.834Z,17.30
2018-12-16T04:18:00.488Z,16.93
2018-12-16T04:20:45.738Z,16.85
2018-12-16T04:23:18.886Z,17.15
2018-12-16T04:25:47.661Z,17.02
2018-12-16T04:28:22.423Z,16.37
2018-12-16T04:30:53.986Z,15.32
2018-12-16T04:33:26.865Z,16.93
2018-12-16T04:36:13.523Z,15.60
2018-12-16T04:38:41.959Z,15.78
2018-12-16T04:41:10.921Z,15.95
2018-12-16T04:43:40.005Z,16.48
2018-12-16T04:46:10.360Z,16.40
2018-12-16T04:48:44.307Z,16.30
2018-12-16T04:51:13.464Z,15.98
2018-12-16T04:56:41.676Z,14.80
2018-12-16T04:59:29.354Z,14.60
2018-12-16T05:01:58.684Z,15.70
2018-12-16T05:04:27.350Z,15.68
2018-12-16T05:06:55.840Z,17.40
2018-12-16T05:09:31.646Z,17.75
2018-12-16T05:12:05.574Z,19.05
2018-12-16T05:14:34.030Z,19.55
2018-12-16T05:17:11.880Z,18.92
2018-12-16T05:19:40.379Z,16.27
2018-12-16T05:22:08.875Z,15.32
2018-12-16T05:24:37.359Z,15.58
2018-12-16T05:27:07.768Z,17.70
2018-12-16T05:29:38.351Z,15.80
2018-12-16T05:32:07.810Z,16.57
2018-12-16T05:34:43.749Z,15.75
2018-12-16T05:37:13.500Z,16.70
2018-12-16T05:39:43.236Z,17.27
2018-12-16T05:42:13.644Z,18.12
2018-12-16T05:44:42.212Z,18.57
2018-12-16T05:47:16.448Z,18.45
2018-12-16T05:49:45.388Z,17.90
2018-12-16T05:52:13.852Z,18.27
2018-12-16T05:55:02.085Z,17.73
2018-12-16T06:00:25.617Z,20.08
2018-12-16T06:02:54.855Z,22.30
2018-12-16T06:05:23.688Z,20.88
2018-12-16T06:07:56.717Z,21.97
2018-12-16T06:10:32.232Z,21.93
2018-12-16T06:13:03.594Z,20.48
2018-12-16T06:15:34.631Z,22.10
2018-12-16T06:18:10.352Z,23.42
2018-12-16T06:20:42.053Z,23.70
2018-12-16T06:23:11.209Z,22.50
2018-12-16T06:25:40.865Z,22.32
2018-12-16T06:28:14.705Z,21.75
2018-12-16T06:30:47.028Z,19.60
2018-12-16T06:33:15.772Z,20.43
2018-12-16T06:35:44.867Z,20.40
2018-12-16T06:38:13.469Z,20.70
2018-12-16T06:40:41.977Z,21.42
2018-12-16T06:43:10.468Z,21.02
2018-12-16T06:45:38.963Z,20.95
2018-12-16T06:48:10.239Z,22.13
2018-12-16T06:50:57.947Z,22.20
2018-12-16T06:53:31.922Z,21.80
2018-12-16T06:56:06.632Z,20.80
2018-12-16T06:58:38.191Z,22.62
2018-12-16T07:01:27.263Z,21.93
2018-12-16T07:03:57.367Z,22.07
2018-12-16T07:06:29.998Z,39.85
2018-12-16T07:09:06.019Z,29.32
2018-12-16T07:11:37.923Z,22.93
2018-12-16T07:14:08.788Z,21.40
2018-12-16T07:16:40.797Z,20.48
2018-12-16T07:19:14.671Z,22.60
2018-12-16T07:21:45.587Z,25.85
2018-12-16T07:24:15.434Z,26.27
2018-12-16T07:26:54.210Z,25.20
2018-12-16T07:29:28.028Z,24.80
2018-12-16T07:31:56.888Z,22.22
2018-12-16T07:34:25.607Z,22.00
2018-12-16T07:39:51.580Z,21.90
2018-12-16T07:42:20.245Z,21.52
2018-12-16T07:44:49.102Z,22.62
2018-12-16T07:47:18.588Z,22.55
2018-12-16T07:49:48.729Z,22.93
2018-12-16T07:52:37.786Z,20.25
2018-12-16T07:55:06.358Z,21.55
2018-12-16T07:57:52.056Z,21.37
2018-12-16T08:00:20.607Z,22.70
2018-12-16T08:02:51.052Z,25.82
2018-12-16T08:05:19.548Z,24.30
2018-12-16T08:07:48.800Z,21.95
2018-12-16T08:10:17.289Z,22.42
2018-12-16T08:12:45.798Z,19.57
2018-12-16T08:15:14.663Z,19.53
2018-12-16T08:17:43.380Z,21.33
2018-12-16T08:20:17.233Z,20.43
2018-12-16T08:22:50.134Z,19.30
2018-12-16T08:25:37.023Z,19.00
2018-12-16T08:28:27.627Z,19.63
2018-12-16T08:30:57.710Z,21.30
2018-12-16T08:33:26.467Z,20.40
2018-12-16T08:35:56.003Z,21.10
2018-12-16T08:38:24.790Z,21.60
2018-12-16T08:40:53.269Z,19.67
2018-12-16T08:43:21.756Z,20.07
2018-12-16T08:45:50.279Z,19.77
2018-12-16T08:48:18.717Z,19.60
2018-12-16T08:50:47.416Z,20.57
2018-12-16T08:53:15.927Z,20.00
2018-12-16T08:55:44.404Z,19.60
2018-12-16T08:58:12.856Z,19.43
2018-12-16T09:00:41.340Z,22.93
2018-12-16T09:03:10.664Z,18.67
2018-12-16T09:05:39.265Z,19.00
2018-12-16T09:08:07.748Z,17.80
2018-12-16T09:10:36.212Z,18.03
2018-12-16T09:13:04.732Z,19.13
2018-12-16T09:15:33.223Z,19.63
2018-12-16T09:18:01.920Z,20.40
2018-12-16T09:20:30.623Z,20.67
2018-12-16T09:22:59.120Z,20.07
2018-12-16T09:25:27.598Z,21.80
2018-12-16T09:27:56.414Z,20.57
2018-12-16T09:30:24.912Z,20.73
2018-12-16T09:32:53.348Z,21.13
2018-12-16T09:35:21.826Z,20.67
2018-12-16T09:37:50.323Z,21.30
2018-12-16T09:40:18.802Z,22.00
2018-12-16T09:42:47.284Z,23.10
2018-12-16T09:45:15.808Z,22.10
2018-12-16T09:47:44.268Z,22.20
2018-12-16T09:50:12.736Z,20.80
2018-12-16T09:52:41.234Z,20.80
2018-12-16T09:55:09.713Z,20.27
2018-12-16T09:57:38.157Z,20.23
2018-12-16T10:00:08.769Z,20.23
2018-12-16T10:02:37.236Z,21.13
2018-12-16T10:05:06.438Z,21.20
2018-12-16T10:07:35.017Z,18.97
2018-12-16T10:10:07.017Z,18.53
2018-12-16T10:12:35.527Z,18.60
2018-12-16T10:15:05.219Z,19.03
2018-12-16T10:17:33.703Z,19.97
2018-12-16T10:20:02.195Z,18.80
2018-12-16T10:22:30.631Z,17.93
2018-12-16T10:24:59.096Z,18.93
2018-12-16T10:27:27.592Z,17.50
2018-12-16T10:29:56.029Z,18.20
2018-12-16T10:32:24.468Z,47.03
2018-12-16T10:34:52.941Z,18.97
2018-12-16T10:37:21.422Z,18.87
2018-12-16T10:39:50.428Z,16.90
2018-12-16T10:42:18.942Z,16.13
2018-12-16T10:44:47.885Z,17.80
2018-12-16T10:47:16.343Z,15.70
2018-12-16T10:49:44.821Z,24.73
2018-12-16T10:52:13.305Z,19.30
2018-12-16T10:54:42.232Z,16.20
2018-12-16T10:57:10.723Z,16.80
2018-12-16T10:59:39.172Z,14.73
2018-12-16T11:02:07.621Z,15.10
2018-12-16T11:04:37.155Z,14.67
2018-12-16T11:07:05.620Z,14.33
2018-12-16T11:09:34.056Z,13.90
2018-12-16T11:12:02.577Z,14.83
2018-12-16T11:14:31.037Z,15.77
2018-12-16T11:16:59.466Z,14.47
2018-12-16T11:19:27.944Z,13.13
2018-12-16T11:21:56.370Z,20.43
2018-12-16T11:24:24.853Z,19.50
2018-12-16T11:26:53.347Z,17.57
2018-12-16T11:29:21.820Z,17.37
2018-12-16T11:31:50.316Z,16.70
2018-12-16T11:34:18.854Z,16.93
2018-12-16T11:36:47.295Z,16.57
2018-12-16T11:39:15.776Z,49.30
2018-12-16T11:41:44.255Z,17.37
2018-12-16T11:44:12.690Z,19.60
2018-12-16T11:46:42.144Z,16.50
2018-12-16T11:49:10.597Z,15.37
2018-12-16T11:51:39.519Z,14.97
2018-12-16T11:54:08.008Z,14.23
2018-12-16T11:56:36.478Z,15.20
2018-12-16T11:59:04.887Z,16.00
2018-12-16T12:01:33.340Z,15.57
2018-12-16T12:04:03.884Z,16.93
2018-12-16T12:06:32.356Z,16.77
2018-12-16T12:09:00.816Z,15.83
2018-12-16T12:11:29.386Z,16.23
2018-12-16T12:13:57.959Z,16.33
2018-12-16T12:16:26.420Z,23.40
2018-12-16T12:19:00.053Z,17.73
2018-12-16T12:21:28.541Z,19.67
2018-12-16T12:23:57.032Z,19.90
2018-12-16T12:26:25.606Z,19.60
2018-12-16T12:28:54.095Z,21.13
2018-12-16T12:31:22.576Z,34.73
2018-12-16T12:33:51.212Z,27.53
2018-12-16T12:36:19.692Z,18.90
2018-12-16T12:38:48.180Z,18.13
2018-12-16T12:41:16.732Z,16.90
2018-12-16T12:43:45.256Z,17.90
2018-12-16T12:46:13.724Z,17.67
2018-12-16T12:48:42.283Z,18.60
2018-12-16T12:51:10.772Z,18.53
2018-12-16T12:53:39.311Z,17.40
2018-12-16T12:56:07.889Z,19.07
2018-12-16T12:58:36.320Z,21.30
2018-12-16T13:01:04.838Z,17.67
2018-12-16T13:03:33.455Z,19.00
2018-12-16T13:06:01.993Z,19.03
2018-12-16T13:08:30.518Z,18.70
2018-12-16T13:10:59.077Z,21.53
2018-12-16T13:13:27.555Z,20.87
2018-12-16T13:15:56.814Z,18.10
2018-12-16T13:18:25.355Z,18.70
2018-12-16T13:20:53.882Z,18.73
2018-12-16T13:23:22.420Z,19.20
2018-12-16T13:26:01.660Z,19.97
2018-12-16T13:28:30.238Z,22.10
2018-12-16T13:30:58.744Z,21.43
2018-12-16T13:33:27.297Z,19.93
2018-12-16T13:35:55.833Z,20.27
2018-12-16T13:38:24.363Z,20.10
2018-12-16T13:40:53.152Z,20.43
2018-12-16T13:43:21.716Z,20.33
2018-12-16T13:45:50.259Z,19.57
2018-12-16T13:48:18.890Z,20.57
2018-12-16T13:50:47.371Z,20.60
2018-12-16T13:53:16.196Z,20.93
2018-12-16T13:55:45.408Z,20.73
2018-12-16T13:58:13.949Z,20.73
2018-12-16T14:00:42.507Z,20.17
2018-12-16T14:03:11.039Z,20.37
2018-12-16T14:05:46.447Z,21.40
2018-12-16T14:08:10.121Z,22.40
2018-12-16T14:10:38.742Z,22.13
2018-12-16T14:13:07.482Z,21.13
2018-12-16T14:15:36.084Z,20.63
2018-12-16T14:18:04.704Z,20.23
2018-12-16T14:20:33.210Z,20.03
2018-12-16T14:23:01.760Z,20.27
2018-12-16T14:25:30.441Z,19.67
2018-12-16T14:27:58.956Z,19.90
2018-12-16T14:30:27.786Z,19.47
2018-12-16T14:32:56.612Z,20.63
2018-12-16T14:35:25.397Z,19.50
2018-12-16T14:37:54.247Z,19.73
2018-12-16T14:40:22.810Z,18.60
2018-12-16T14:42:51.613Z,19.17
2018-12-16T14:45:20.144Z,18.57
2018-12-16T14:47:49.059Z,18.57
2018-12-16T14:50:17.614Z,17.83
2018-12-16T14:52:46.177Z,20.53
2018-12-16T14:55:14.940Z,19.40
2018-12-16T14:57:43.758Z,17.50
2018-12-16T15:00:12.462Z,22.57
2018-12-16T15:02:41.030Z,17.90
2018-12-16T15:05:09.628Z,18.73
2018-12-16T15:07:38.426Z,24.17
2018-12-16T15:10:07.722Z,20.00
2018-12-16T15:12:36.348Z,21.10
2018-12-16T15:15:05.591Z,23.50
2018-12-16T15:17:34.275Z,24.23
2018-12-16T15:20:03.257Z,22.57
2018-12-16T15:22:31.749Z,20.53
2018-12-16T15:25:00.336Z,20.37
2018-12-16T15:27:29.202Z,19.70
2018-12-16T15:29:58.005Z,19.80
2018-12-16T15:32:26.590Z,19.30
2018-12-16T15:34:55.214Z,19.07
2018-12-16T15:37:23.847Z,20.63
2018-12-16T15:39:52.727Z,19.57
2018-12-16T15:42:21.419Z,20.27
2018-12-16T15:44:51.548Z,19.13
2018-12-16T15:47:20.218Z,20.63
2018-12-16T15:49:49.280Z,20.17
2018-12-16T15:52:23.159Z,20.47
2018-12-16T15:54:57.761Z,20.60
2018-12-16T15:57:31.820Z,20.83
2018-12-16T16:00:00.956Z,21.37
2018-12-16T16:02:29.615Z,21.17
2018-12-16T16:04:59.159Z,20.40
2018-12-16T16:07:27.757Z,20.57
2018-12-16T16:09:56.547Z,19.80
2018-12-16T16:12:25.136Z,20.87
2018-12-16T16:14:53.733Z,21.00
2018-12-16T16:17:22.199Z,20.33
2018-12-16T16:19:50.834Z,21.37
2018-12-16T16:22:19.405Z,21.90
2018-12-16T16:24:47.968Z,21.53
2018-12-16T16:27:16.588Z,20.80
2018-12-16T16:29:45.055Z,48.30
2018-12-16T16:32:13.673Z,32.47
2018-12-16T16:34:43.358Z,27.63
2018-12-16T16:37:11.930Z,21.07
2018-12-16T16:39:40.561Z,21.73
2018-12-16T16:42:09.231Z,21.10
2018-12-16T16:44:37.768Z,21.33
2018-12-16T16:47:06.460Z,21.43
2018-12-16T16:49:35.709Z,22.07
2018-12-16T16:52:19.336Z,22.60
2018-12-16T16:54:49.945Z,24.67
2018-12-16T16:57:24.731Z,22.30
2018-12-16T16:59:59.453Z,22.77
2018-12-16T17:02:29.941Z,21.67
2018-12-16T17:04:59.242Z,22.70
2018-12-16T17:07:28.229Z,23.23
2018-12-16T17:09:56.867Z,23.70
2018-12-16T17:12:25.457Z,22.27
2018-12-16T17:14:54.828Z,23.03
2018-12-16T17:20:20.037Z,23.03
2018-12-16T17:22:54.284Z,22.93
2018-12-16T17:25:34.084Z,24.00
2018-12-16T17:28:03.743Z,23.87
2018-12-16T17:30:32.400Z,23.13
2018-12-16T17:33:04.413Z,23.60
2018-12-16T17:38:28.235Z,23.33
2018-12-16T17:40:57.676Z,24.13
2018-12-16T17:43:26.585Z,23.40
2018-12-16T17:46:00.920Z,22.47
2018-12-16T17:48:29.694Z,86.57
2018-12-16T17:51:04.725Z,28.57
2018-12-16T17:53:33.346Z,24.33
2018-12-16T17:56:03.926Z,24.47
2018-12-16T17:58:32.758Z,25.37
2018-12-16T18:01:06.918Z,29.47
2018-12-16T18:03:52.539Z,29.07
2018-12-16T18:06:21.229Z,27.10
2018-12-16T18:08:52.072Z,23.30
2018-12-16T18:11:24.128Z,24.57
2018-12-16T18:13:52.784Z,24.97
2018-12-16T18:16:42.621Z,25.33
2018-12-16T18:19:29.498Z,25.00
2018-12-16T18:22:05.888Z,25.93
2018-12-16T18:24:35.666Z,24.63
2018-12-16T18:27:05.099Z,24.60
2018-12-16T18:29:52.147Z,23.10
2018-12-16T18:32:20.834Z,25.50
2018-12-16T18:34:50.678Z,24.83
2018-12-16T18:37:19.740Z,25.10
2018-12-16T18:39:54.391Z,26.97
2018-12-16T18:42:27.405Z,25.77
2018-12-16T18:44:56.073Z,25.32
2018-12-16T18:47:24.648Z,28.80
2018-12-16T18:49:54.339Z,33.23
2018-12-16T18:52:42.158Z,37.07
2018-12-16T18:55:10.828Z,28.00
2018-12-16T18:57:39.800Z,27.60
2018-12-16T19:00:12.552Z,28.32
2018-12-16T19:02:46.747Z,30.47
2018-12-16T19:05:22.420Z,37.97
2018-12-16T19:07:51.828Z,44.87
2018-12-16T19:10:20.484Z,44.27
2018-12-16T19:12:56.221Z,42.62
2018-12-16T19:18:24.927Z,41.90
2018-12-16T19:20:59.517Z,40.40
2018-12-16T19:23:28.182Z,39.20
2018-12-16T19:28:52.612Z,36.53
2018-12-16T19:31:25.818Z,35.87
2018-12-16T19:34:13.508Z,37.37
2018-12-16T19:36:47.403Z,36.43
2018-12-16T19:39:20.872Z,50.60
2018-12-16T19:44:43.845Z,37.07
2018-12-16T19:47:13.020Z,36.07
2018-12-16T19:49:41.787Z,36.03
2018-12-16T19:52:10.419Z,38.60
2018-12-16T19:54:45.122Z,39.07
2018-12-16T19:57:17.122Z,38.00
2018-12-16T19:59:57.544Z,37.97
2018-12-16T20:02:26.172Z,36.93
2018-12-16T20:05:20.756Z,37.20
2018-12-16T20:08:09.937Z,36.63
2018-12-16T20:10:42.816Z,37.43
2018-12-16T20:13:14.867Z,37.17
2018-12-16T20:16:04.387Z,35.43
2018-12-16T20:18:50.419Z,36.28
2018-12-16T20:21:22.907Z,35.92
2018-12-16T20:23:51.510Z,40.20
2018-12-16T20:26:33.287Z,36.53
2018-12-16T20:29:07.121Z,36.03
2018-12-16T20:31:38.109Z,36.42
2018-12-16T20:34:15.055Z,35.70
2018-12-16T20:36:48.283Z,42.87
2018-12-16T20:39:27.320Z,35.17
2018-12-16T20:41:57.242Z,35.80
2018-12-16T20:44:40.058Z,35.70
2018-12-16T20:47:13.892Z,34.80
2018-12-16T20:49:44.881Z,34.77
2018-12-16T20:52:18.952Z,38.53
2018-12-16T20:55:02.775Z,43.30
2018-12-16T21:00:27.076Z,42.73
2018-12-16T21:03:01.967Z,43.20
2018-12-16T21:05:34.053Z,45.00
2018-12-16T21:08:03.944Z,43.17
2018-12-16T21:10:54.980Z,40.98
2018-12-16T21:13:35.343Z,44.10
2018-12-16T21:16:12.228Z,43.55
2018-12-16T21:18:42.744Z,43.13
2018-12-16T21:21:14.710Z,41.50
2018-12-16T21:23:44.745Z,43.15
2018-12-16T21:26:21.589Z,43.03
2018-12-16T21:28:50.176Z,41.10
2018-12-16T21:31:19.428Z,42.90
2018-12-16T21:33:53.364Z,41.13
2018-12-16T21:39:15.907Z,42.17
2018-12-16T21:42:06.848Z,42.03
2018-12-16T21:44:35.398Z,40.30
2018-12-16T21:47:23.589Z,40.70
2018-12-16T21:49:53.237Z,38.83
2018-12-16T21:52:27.080Z,39.40
2018-12-16T21:54:55.818Z,37.90
2018-12-16T21:57:33.059Z,37.30
2018-12-16T22:00:00.655Z,37.83
2018-12-16T22:02:32.492Z,37.30
2018-12-16T22:05:01.404Z,38.90
2018-12-16T22:07:30.206Z,37.67
2018-12-16T22:09:58.704Z,34.83
2018-12-16T22:12:29.717Z,34.13
2018-12-16T22:14:59.670Z,33.77
2018-12-16T22:17:28.496Z,34.67
2018-12-16T22:19:56.989Z,40.63
2018-12-16T22:22:29.746Z,34.70
2018-12-16T22:24:59.599Z,32.47
2018-12-16T22:27:40.131Z,32.60
2018-12-16T22:30:05.156Z,32.50
2018-12-16T22:35:30.555Z,32.27
2018-12-16T22:38:05.076Z,34.10
2018-12-16T22:40:50.428Z,32.10
2018-12-16T22:43:20.428Z,33.13
2018-12-16T22:45:54.360Z,31.77
2018-12-16T22:48:33.365Z,32.90
2018-12-16T22:51:02.515Z,31.57
2018-12-16T22:53:31.232Z,31.20
2018-12-16T22:55:59.659Z,32.63
2018-12-16T22:58:33.568Z,31.90
2018-12-16T23:01:07.663Z,32.27
2018-12-16T23:03:36.780Z,32.70
2018-12-16T23:06:05.217Z,31.23
2018-12-16T23:08:34.524Z,31.47
2018-12-16T23:14:01.902Z,31.03
2018-12-16T23:19:27.308Z,32.97
2018-12-16T23:21:56.136Z,32.43
2018-12-16T23:24:42.141Z,33.53
2018-12-16T23:27:10.912Z,33.80
2018-12-16T23:29:39.393Z,32.40
2018-12-16T23:32:23.750Z,31.90
2018-12-16T23:34:52.410Z,33.48
2018-12-16T23:37:20.899Z,33.67
2018-12-16T23:39:50.527Z,32.30
2018-12-16T23:42:23.887Z,33.02
2018-12-16T23:45:08.088Z,32.20
2018-12-16T23:47:53.441Z,32.00
2018-12-16T23:50:26.336Z,32.88
2018-12-16T23:52:54.960Z,32.30
2018-12-16T23:55:26.396Z,31.73
